sensor_id;sensor_type;location;lat;lon;timestamp;P1;durP1;ratioP1;P2;durP2;ratioP2
67378;SDS011;54262;44.642;-0.974;2023-08-24T00:01:50;11.65;;;10.43;;
67378;SDS011;54262;44.642;-0.974;2023-08-24T00:04:15;14.75;;;10.05;;
67378;SDS011;54262;44.642;-0.974;2023-08-24T00:06:41;11.45;;;10.20;;
67378;SDS011;54262;44.642;-0.974;2023-08-24T00:09:06;9.90;;;9.35;;
67378;SDS011;54262;44.642;-0.974;2023-08-24T00:11:33;10.82;;;9.88;;
67378;SDS011;54262;44.642;-0.974;2023-08-24T00:13:59;10.70;;;10.00;;
67378;SDS011;54262;44.642;-0.974;2023-08-24T00:16:24;10.50;;;9.90;;
67378;SDS011;54262;44.642;-0.974;2023-08-24T00:18:50;10.38;;;9.20;;
67378;SDS011;54262;44.642;-0.974;2023-08-24T00:21:18;10.35;;;9.63;;
67378;SDS011;54262;44.642;-0.974;2023-08-24T00:23:48;10.55;;;9.73;;
67378;SDS011;54262;44.642;-0.974;2023-08-24T00:26:14;9.98;;;9.38;;
67378;SDS011;54262;44.642;-0.974;2023-08-24T00:28:42;9.48;;;8.75;;
67378;SDS011;54262;44.642;-0.974;2023-08-24T00:31:08;10.75;;;9.80;;
67378;SDS011;54262;44.642;-0.974;2023-08-24T00:33:33;10.15;;;9.50;;
67378;SDS011;54262;44.642;-0.974;2023-08-24T00:36:02;10.48;;;9.65;;
67378;SDS011;54262;44.642;-0.974;2023-08-24T00:38:29;16.08;;;10.00;;
67378;SDS011;54262;44.642;-0.974;2023-08-24T00:40:55;10.77;;;10.07;;
67378;SDS011;54262;44.642;-0.974;2023-08-24T00:43:21;12.70;;;8.95;;
67378;SDS011;54262;44.642;-0.974;2023-08-24T00:45:52;10.50;;;9.57;;
67378;SDS011;54262;44.642;-0.974;2023-08-24T00:48:20;10.48;;;9.98;;
67378;SDS011;54262;44.642;-0.974;2023-08-24T00:50:51;10.77;;;9.60;;
67378;SDS011;54262;44.642;-0.974;2023-08-24T00:53:18;19.73;;;11.95;;
67378;SDS011;54262;44.642;-0.974;2023-08-24T00:55:44;10.98;;;10.32;;
67378;SDS011;54262;44.642;-0.974;2023-08-24T00:58:11;10.50;;;9.63;;
67378;SDS011;54262;44.642;-0.974;2023-08-24T01:00:38;11.05;;;10.05;;
67378;SDS011;54262;44.642;-0.974;2023-08-24T01:03:04;10.20;;;9.52;;
67378;SDS011;54262;44.642;-0.974;2023-08-24T01:05:30;10.43;;;9.40;;
67378;SDS011;54262;44.642;-0.974;2023-08-24T01:07:55;10.25;;;9.32;;
67378;SDS011;54262;44.642;-0.974;2023-08-24T01:10:21;11.68;;;10.50;;
67378;SDS011;54262;44.642;-0.974;2023-08-24T01:15:24;10.38;;;9.57;;
67378;SDS011;54262;44.642;-0.974;2023-08-24T01:18:06;9.77;;;9.07;;
67378;SDS011;54262;44.642;-0.974;2023-08-24T01:20:44;9.80;;;8.88;;
67378;SDS011;54262;44.642;-0.974;2023-08-24T01:23:15;9.20;;;8.80;;
67378;SDS011;54262;44.642;-0.974;2023-08-24T01:25:48;10.30;;;9.45;;
67378;SDS011;54262;44.642;-0.974;2023-08-24T01:28:18;9.40;;;8.75;;
67378;SDS011;54262;44.642;-0.974;2023-08-24T01:30:46;9.65;;;8.95;;
67378;SDS011;54262;44.642;-0.974;2023-08-24T01:33:12;9.35;;;8.65;;
67378;SDS011;54262;44.642;-0.974;2023-08-24T01:35:39;9.18;;;8.40;;
67378;SDS011;54262;44.642;-0.974;2023-08-24T01:38:05;11.10;;;10.07;;
67378;SDS011;54262;44.642;-0.974;2023-08-24T01:43:25;8.55;;;7.93;;
67378;SDS011;54262;44.642;-0.974;2023-08-24T01:45:55;12.93;;;9.07;;
67378;SDS011;54262;44.642;-0.974;2023-08-24T01:48:23;13.15;;;8.88;;
67378;SDS011;54262;44.642;-0.974;2023-08-24T01:50:50;9.50;;;8.65;;
67378;SDS011;54262;44.642;-0.974;2023-08-24T01:53:16;9.00;;;8.48;;
67378;SDS011;54262;44.642;-0.974;2023-08-24T01:55:42;8.98;;;8.38;;
67378;SDS011;54262;44.642;-0.974;2023-08-24T01:58:10;8.98;;;8.20;;
67378;SDS011;54262;44.642;-0.974;2023-08-24T02:00:36;9.90;;;8.98;;
67378;SDS011;54262;44.642;-0.974;2023-08-24T02:03:01;8.70;;;8.23;;
67378;SDS011;54262;44.642;-0.974;2023-08-24T02:05:27;9.80;;;9.10;;
67378;SDS011;54262;44.642;-0.974;2023-08-24T02:07:54;9.02;;;8.63;;
67378;SDS011;54262;44.642;-0.974;2023-08-24T02:10:20;11.65;;;9.00;;
67378;SDS011;54262;44.642;-0.974;2023-08-24T02:12:46;9.95;;;8.75;;
67378;SDS011;54262;44.642;-0.974;2023-08-24T02:15:11;10.23;;;9.35;;
67378;SDS011;54262;44.642;-0.974;2023-08-24T02:17:37;10.02;;;9.05;;
67378;SDS011;54262;44.642;-0.974;2023-08-24T02:20:03;10.18;;;9.20;;
67378;SDS011;54262;44.642;-0.974;2023-08-24T02:22:30;11.35;;;8.20;;
67378;SDS011;54262;44.642;-0.974;2023-08-24T02:24:58;9.95;;;9.00;;
67378;SDS011;54262;44.642;-0.974;2023-08-24T02:27:28;8.82;;;8.32;;
67378;SDS011;54262;44.642;-0.974;2023-08-24T02:29:54;8.93;;;8.15;;
67378;SDS011;54262;44.642;-0.974;2023-08-24T02:32:20;10.52;;;8.55;;
67378;SDS011;54262;44.642;-0.974;2023-08-24T02:34:45;10.00;;;9.13;;
67378;SDS011;54262;44.642;-0.974;2023-08-24T02:37:14;8.75;;;8.25;;
67378;SDS011;54262;44.642;-0.974;2023-08-24T02:39:40;9.30;;;8.70;;
67378;SDS011;54262;44.642;-0.974;2023-08-24T02:42:05;8.43;;;7.93;;
67378;SDS011;54262;44.642;-0.974;2023-08-24T02:44:31;8.93;;;8.32;;
67378;SDS011;54262;44.642;-0.974;2023-08-24T02:46:57;8.88;;;8.27;;
67378;SDS011;54262;44.642;-0.974;2023-08-24T02:49:23;8.63;;;8.10;;
67378;SDS011;54262;44.642;-0.974;2023-08-24T02:51:48;8.65;;;8.25;;
67378;SDS011;54262;44.642;-0.974;2023-08-24T02:54:14;8.95;;;7.82;;
67378;SDS011;54262;44.642;-0.974;2023-08-24T02:56:39;9.13;;;8.35;;
67378;SDS011;54262;44.642;-0.974;2023-08-24T02:59:05;8.38;;;7.85;;
67378;SDS011;54262;44.642;-0.974;2023-08-24T03:01:31;7.95;;;7.55;;
67378;SDS011;54262;44.642;-0.974;2023-08-24T03:03:57;8.32;;;7.55;;
67378;SDS011;54262;44.642;-0.974;2023-08-24T03:06:23;8.13;;;7.70;;
67378;SDS011;54262;44.642;-0.974;2023-08-24T03:08:51;10.18;;;8.63;;
67378;SDS011;54262;44.642;-0.974;2023-08-24T03:11:17;8.43;;;7.68;;
67378;SDS011;54262;44.642;-0.974;2023-08-24T03:13:43;8.80;;;8.30;;
67378;SDS011;54262;44.642;-0.974;2023-08-24T03:16:08;8.30;;;7.90;;
67378;SDS011;54262;44.642;-0.974;2023-08-24T03:18:34;8.20;;;7.60;;
67378;SDS011;54262;44.642;-0.974;2023-08-24T03:21:00;8.35;;;7.80;;
67378;SDS011;54262;44.642;-0.974;2023-08-24T03:23:26;8.35;;;7.70;;
67378;SDS011;54262;44.642;-0.974;2023-08-24T03:25:54;9.00;;;8.10;;
67378;SDS011;54262;44.642;-0.974;2023-08-24T03:28:22;9.23;;;8.73;;
67378;SDS011;54262;44.642;-0.974;2023-08-24T03:30:49;10.57;;;7.55;;
67378;SDS011;54262;44.642;-0.974;2023-08-24T03:33:16;7.90;;;6.97;;
67378;SDS011;54262;44.642;-0.974;2023-08-24T03:35:42;9.23;;;8.43;;
67378;SDS011;54262;44.642;-0.974;2023-08-24T03:38:08;7.78;;;7.13;;
67378;SDS011;54262;44.642;-0.974;2023-08-24T03:40:34;7.78;;;7.13;;
67378;SDS011;54262;44.642;-0.974;2023-08-24T03:43:03;8.88;;;7.78;;
67378;SDS011;54262;44.642;-0.974;2023-08-24T03:45:29;10.57;;;7.40;;
67378;SDS011;54262;44.642;-0.974;2023-08-24T03:47:55;8.32;;;7.85;;
67378;SDS011;54262;44.642;-0.974;2023-08-24T03:50:21;8.27;;;7.78;;
67378;SDS011;54262;44.642;-0.974;2023-08-24T03:52:47;8.40;;;7.97;;
67378;SDS011;54262;44.642;-0.974;2023-08-24T03:55:15;7.70;;;7.22;;
67378;SDS011;54262;44.642;-0.974;2023-08-24T03:57:40;13.20;;;7.85;;
67378;SDS011;54262;44.642;-0.974;2023-08-24T04:00:06;8.25;;;7.35;;
67378;SDS011;54262;44.642;-0.974;2023-08-24T04:02:36;8.60;;;7.63;;
67378;SDS011;54262;44.642;-0.974;2023-08-24T04:05:04;7.63;;;7.22;;
67378;SDS011;54262;44.642;-0.974;2023-08-24T04:07:30;7.47;;;7.07;;
67378;SDS011;54262;44.642;-0.974;2023-08-24T04:09:56;6.90;;;6.60;;
67378;SDS011;54262;44.642;-0.974;2023-08-24T04:12:22;9.07;;;8.55;;
67378;SDS011;54262;44.642;-0.974;2023-08-24T04:14:47;9.20;;;8.70;;
67378;SDS011;54262;44.642;-0.974;2023-08-24T04:17:14;8.80;;;8.32;;
67378;SDS011;54262;44.642;-0.974;2023-08-24T04:19:39;7.63;;;7.13;;
67378;SDS011;54262;44.642;-0.974;2023-08-24T04:22:05;10.40;;;9.52;;
67378;SDS011;54262;44.642;-0.974;2023-08-24T04:24:31;8.10;;;7.80;;
67378;SDS011;54262;44.642;-0.974;2023-08-24T04:26:58;8.85;;;8.15;;
67378;SDS011;54262;44.642;-0.974;2023-08-24T04:29:26;8.70;;;8.20;;
67378;SDS011;54262;44.642;-0.974;2023-08-24T04:31:52;13.90;;;8.63;;
67378;SDS011;54262;44.642;-0.974;2023-08-24T04:34:18;12.93;;;8.73;;
67378;SDS011;54262;44.642;-0.974;2023-08-24T04:36:43;9.20;;;8.57;;
67378;SDS011;54262;44.642;-0.974;2023-08-24T04:39:09;11.05;;;8.10;;
67378;SDS011;54262;44.642;-0.974;2023-08-24T04:41:35;8.50;;;7.70;;
67378;SDS011;54262;44.642;-0.974;2023-08-24T04:44:01;8.13;;;7.47;;
67378;SDS011;54262;44.642;-0.974;2023-08-24T04:46:27;8.05;;;7.50;;
67378;SDS011;54262;44.642;-0.974;2023-08-24T04:48:52;10.23;;;7.68;;
67378;SDS011;54262;44.642;-0.974;2023-08-24T04:51:18;8.27;;;7.55;;
67378;SDS011;54262;44.642;-0.974;2023-08-24T04:53:44;8.30;;;7.70;;
67378;SDS011;54262;44.642;-0.974;2023-08-24T04:56:09;9.07;;;7.95;;
67378;SDS011;54262;44.642;-0.974;2023-08-24T04:58:35;9.20;;;7.43;;
67378;SDS011;54262;44.642;-0.974;2023-08-24T05:01:00;7.80;;;7.20;;
67378;SDS011;54262;44.642;-0.974;2023-08-24T05:03:26;8.10;;;7.57;;
67378;SDS011;54262;44.642;-0.974;2023-08-24T05:05:52;8.18;;;7.50;;
67378;SDS011;54262;44.642;-0.974;2023-08-24T05:08:17;7.43;;;7.03;;
67378;SDS011;54262;44.642;-0.974;2023-08-24T05:10:43;7.28;;;6.90;;
67378;SDS011;54262;44.642;-0.974;2023-08-24T05:13:08;8.07;;;7.47;;
67378;SDS011;54262;44.642;-0.974;2023-08-24T05:15:34;7.45;;;7.05;;
67378;SDS011;54262;44.642;-0.974;2023-08-24T05:18:00;7.63;;;7.20;;
67378;SDS011;54262;44.642;-0.974;2023-08-24T05:20:32;7.57;;;7.18;;
67378;SDS011;54262;44.642;-0.974;2023-08-24T05:22:57;16.27;;;8.32;;
67378;SDS011;54262;44.642;-0.974;2023-08-24T05:25:24;9.18;;;8.32;;
67378;SDS011;54262;44.642;-0.974;2023-08-24T05:27:52;8.10;;;7.63;;
67378;SDS011;54262;44.642;-0.974;2023-08-24T05:30:20;15.65;;;6.70;;
67378;SDS011;54262;44.642;-0.974;2023-08-24T05:32:46;8.10;;;7.55;;
67378;SDS011;54262;44.642;-0.974;2023-08-24T05:35:11;8.23;;;7.57;;
67378;SDS011;54262;44.642;-0.974;2023-08-24T05:37:37;7.93;;;6.82;;
67378;SDS011;54262;44.642;-0.974;2023-08-24T05:40:03;7.50;;;7.10;;
67378;SDS011;54262;44.642;-0.974;2023-08-24T05:42:30;68.97;;;10.55;;
67378;SDS011;54262;44.642;-0.974;2023-08-24T05:44:55;14.15;;;6.95;;
67378;SDS011;54262;44.642;-0.974;2023-08-24T05:47:21;11.88;;;7.43;;
67378;SDS011;54262;44.642;-0.974;2023-08-24T05:49:47;7.65;;;6.72;;
67378;SDS011;54262;44.642;-0.974;2023-08-24T05:52:12;7.13;;;6.72;;
67378;SDS011;54262;44.642;-0.974;2023-08-24T05:54:38;11.82;;;6.60;;
67378;SDS011;54262;44.642;-0.974;2023-08-24T05:57:04;6.70;;;6.40;;
67378;SDS011;54262;44.642;-0.974;2023-08-24T05:59:30;9.45;;;7.10;;
67378;SDS011;54262;44.642;-0.974;2023-08-24T06:01:57;7.15;;;6.60;;
67378;SDS011;54262;44.642;-0.974;2023-08-24T06:04:22;7.57;;;6.93;;
67378;SDS011;54262;44.642;-0.974;2023-08-24T06:06:48;6.03;;;5.80;;
67378;SDS011;54262;44.642;-0.974;2023-08-24T06:09:13;7.22;;;6.50;;
67378;SDS011;54262;44.642;-0.974;2023-08-24T06:11:42;8.43;;;6.70;;
67378;SDS011;54262;44.642;-0.974;2023-08-24T06:14:08;7.45;;;6.85;;
67378;SDS011;54262;44.642;-0.974;2023-08-24T06:16:33;11.52;;;6.82;;
67378;SDS011;54262;44.642;-0.974;2023-08-24T06:18:59;10.05;;;6.90;;
67378;SDS011;54262;44.642;-0.974;2023-08-24T06:21:25;17.63;;;7.00;;
67378;SDS011;54262;44.642;-0.974;2023-08-24T06:23:50;6.35;;;6.05;;
67378;SDS011;54262;44.642;-0.974;2023-08-24T06:26:17;7.15;;;6.20;;
67378;SDS011;54262;44.642;-0.974;2023-08-24T06:28:45;7.93;;;6.50;;
67378;SDS011;54262;44.642;-0.974;2023-08-24T06:31:13;7.97;;;7.00;;
67378;SDS011;54262;44.642;-0.974;2023-08-24T06:33:39;8.10;;;6.20;;
67378;SDS011;54262;44.642;-0.974;2023-08-24T06:36:05;11.00;;;6.55;;
67378;SDS011;54262;44.642;-0.974;2023-08-24T06:38:31;6.82;;;6.53;;
67378;SDS011;54262;44.642;-0.974;2023-08-24T06:41:00;7.18;;;6.68;;
67378;SDS011;54262;44.642;-0.974;2023-08-24T06:43:26;5.82;;;5.53;;
67378;SDS011;54262;44.642;-0.974;2023-08-24T06:45:52;5.28;;;4.97;;
67378;SDS011;54262;44.642;-0.974;2023-08-24T06:48:19;8.48;;;5.40;;
67378;SDS011;54262;44.642;-0.974;2023-08-24T06:50:45;5.90;;;5.60;;
67378;SDS011;54262;44.642;-0.974;2023-08-24T06:53:10;6.10;;;5.60;;
67378;SDS011;54262;44.642;-0.974;2023-08-24T06:55:39;6.63;;;6.13;;
67378;SDS011;54262;44.642;-0.974;2023-08-24T06:58:04;6.20;;;5.70;;
67378;SDS011;54262;44.642;-0.974;2023-08-24T07:00:30;5.50;;;5.20;;
67378;SDS011;54262;44.642;-0.974;2023-08-24T07:02:58;6.18;;;5.68;;
67378;SDS011;54262;44.642;-0.974;2023-08-24T07:05:24;6.03;;;5.07;;
67378;SDS011;54262;44.642;-0.974;2023-08-24T07:07:50;5.10;;;4.90;;
67378;SDS011;54262;44.642;-0.974;2023-08-24T07:10:19;13.27;;;7.05;;
67378;SDS011;54262;44.642;-0.974;2023-08-24T07:12:45;9.98;;;6.13;;
67378;SDS011;54262;44.642;-0.974;2023-08-24T07:15:11;6.45;;;6.00;;
67378;SDS011;54262;44.642;-0.974;2023-08-24T07:17:37;5.60;;;5.28;;
67378;SDS011;54262;44.642;-0.974;2023-08-24T07:20:04;6.25;;;5.93;;
67378;SDS011;54262;44.642;-0.974;2023-08-24T07:22:33;7.25;;;6.68;;
67378;SDS011;54262;44.642;-0.974;2023-08-24T07:25:00;6.30;;;5.82;;
67378;SDS011;54262;44.642;-0.974;2023-08-24T07:27:26;7.90;;;6.35;;
67378;SDS011;54262;44.642;-0.974;2023-08-24T07:29:56;6.03;;;5.50;;
67378;SDS011;54262;44.642;-0.974;2023-08-24T07:32:23;6.53;;;6.22;;
67378;SDS011;54262;44.642;-0.974;2023-08-24T07:34:49;6.68;;;6.13;;
67378;SDS011;54262;44.642;-0.974;2023-08-24T07:37:15;9.73;;;5.07;;
67378;SDS011;54262;44.642;-0.974;2023-08-24T07:39:40;6.25;;;5.95;;
67378;SDS011;54262;44.642;-0.974;2023-08-24T07:42:06;11.68;;;6.95;;
67378;SDS011;54262;44.642;-0.974;2023-08-24T07:44:31;11.40;;;5.78;;
67378;SDS011;54262;44.642;-0.974;2023-08-24T07:46:57;6.40;;;6.10;;
67378;SDS011;54262;44.642;-0.974;2023-08-24T07:49:23;7.38;;;5.95;;
67378;SDS011;54262;44.642;-0.974;2023-08-24T07:51:48;6.82;;;6.35;;
67378;SDS011;54262;44.642;-0.974;2023-08-24T07:54:14;8.20;;;6.75;;
67378;SDS011;54262;44.642;-0.974;2023-08-24T07:56:40;5.53;;;5.32;;
67378;SDS011;54262;44.642;-0.974;2023-08-24T07:59:06;5.75;;;5.35;;
67378;SDS011;54262;44.642;-0.974;2023-08-24T08:01:31;7.25;;;6.88;;
67378;SDS011;54262;44.642;-0.974;2023-08-24T08:03:57;7.53;;;7.03;;
67378;SDS011;54262;44.642;-0.974;2023-08-24T08:06:23;6.20;;;6.00;;
67378;SDS011;54262;44.642;-0.974;2023-08-24T08:08:50;5.00;;;4.80;;
67378;SDS011;54262;44.642;-0.974;2023-08-24T08:11:16;6.95;;;6.45;;
67378;SDS011;54262;44.642;-0.974;2023-08-24T08:13:42;9.88;;;7.32;;
67378;SDS011;54262;44.642;-0.974;2023-08-24T08:16:08;8.85;;;7.80;;
67378;SDS011;54262;44.642;-0.974;2023-08-24T08:18:34;5.93;;;5.60;;
67378;SDS011;54262;44.642;-0.974;2023-08-24T08:21:01;9.38;;;6.80;;
67378;SDS011;54262;44.642;-0.974;2023-08-24T08:23:28;7.13;;;6.40;;
67378;SDS011;54262;44.642;-0.974;2023-08-24T08:25:54;8.23;;;7.63;;
67378;SDS011;54262;44.642;-0.974;2023-08-24T08:28:20;5.80;;;5.50;;
67378;SDS011;54262;44.642;-0.974;2023-08-24T08:30:48;7.82;;;5.88;;
67378;SDS011;54262;44.642;-0.974;2023-08-24T08:33:16;6.35;;;6.05;;
67378;SDS011;54262;44.642;-0.974;2023-08-24T08:35:41;42.45;;;14.02;;
67378;SDS011;54262;44.642;-0.974;2023-08-24T08:38:08;47.88;;;15.55;;
67378;SDS011;54262;44.642;-0.974;2023-08-24T08:40:35;7.90;;;7.10;;
67378;SDS011;54262;44.642;-0.974;2023-08-24T08:43:02;6.50;;;6.05;;
67378;SDS011;54262;44.642;-0.974;2023-08-24T08:45:28;8.52;;;7.65;;
67378;SDS011;54262;44.642;-0.974;2023-08-24T08:48:00;6.10;;;5.70;;
67378;SDS011;54262;44.642;-0.974;2023-08-24T08:50:28;5.95;;;5.60;;
67378;SDS011;54262;44.642;-0.974;2023-08-24T08:52:57;5.47;;;5.15;;
67378;SDS011;54262;44.642;-0.974;2023-08-24T08:55:23;5.75;;;5.20;;
67378;SDS011;54262;44.642;-0.974;2023-08-24T08:57:51;5.80;;;5.38;;
67378;SDS011;54262;44.642;-0.974;2023-08-24T09:00:23;7.55;;;6.05;;
67378;SDS011;54262;44.642;-0.974;2023-08-24T09:02:49;5.70;;;5.40;;
67378;SDS011;54262;44.642;-0.974;2023-08-24T09:05:18;7.30;;;6.82;;
67378;SDS011;54262;44.642;-0.974;2023-08-24T09:07:45;6.00;;;5.70;;
67378;SDS011;54262;44.642;-0.974;2023-08-24T09:10:12;5.93;;;5.43;;
67378;SDS011;54262;44.642;-0.974;2023-08-24T09:12:38;7.68;;;6.18;;
67378;SDS011;54262;44.642;-0.974;2023-08-24T09:15:05;6.20;;;5.88;;
67378;SDS011;54262;44.642;-0.974;2023-08-24T09:17:31;6.57;;;6.07;;
67378;SDS011;54262;44.642;-0.974;2023-08-24T09:19:58;7.20;;;5.68;;
67378;SDS011;54262;44.642;-0.974;2023-08-24T09:22:25;5.82;;;5.60;;
67378;SDS011;54262;44.642;-0.974;2023-08-24T09:24:50;6.35;;;6.05;;
67378;SDS011;54262;44.642;-0.974;2023-08-24T09:27:17;6.43;;;6.03;;
67378;SDS011;54262;44.642;-0.974;2023-08-24T09:29:47;7.65;;;5.70;;
67378;SDS011;54262;44.642;-0.974;2023-08-24T09:32:26;6.40;;;5.93;;
67378;SDS011;54262;44.642;-0.974;2023-08-24T09:34:55;6.15;;;5.75;;
67378;SDS011;54262;44.642;-0.974;2023-08-24T09:37:21;6.10;;;5.68;;
67378;SDS011;54262;44.642;-0.974;2023-08-24T09:39:50;5.90;;;5.60;;
67378;SDS011;54262;44.642;-0.974;2023-08-24T09:42:30;5.93;;;5.53;;
67378;SDS011;54262;44.642;-0.974;2023-08-24T09:45:02;6.00;;;5.70;;
67378;SDS011;54262;44.642;-0.974;2023-08-24T09:47:29;5.47;;;5.18;;
67378;SDS011;54262;44.642;-0.974;2023-08-24T09:49:55;6.00;;;5.50;;
67378;SDS011;54262;44.642;-0.974;2023-08-24T09:52:20;5.03;;;4.82;;
67378;SDS011;54262;44.642;-0.974;2023-08-24T09:54:48;5.68;;;5.38;;
67378;SDS011;54262;44.642;-0.974;2023-08-24T09:57:16;5.28;;;4.97;;
67378;SDS011;54262;44.642;-0.974;2023-08-24T09:59:45;6.20;;;5.78;;
67378;SDS011;54262;44.642;-0.974;2023-08-24T10:02:18;5.97;;;5.50;;
67378;SDS011;54262;44.642;-0.974;2023-08-24T10:04:48;5.63;;;5.15;;
67378;SDS011;54262;44.642;-0.974;2023-08-24T10:07:18;11.38;;;6.13;;
67378;SDS011;54262;44.642;-0.974;2023-08-24T10:12:20;6.30;;;5.95;;
67378;SDS011;54262;44.642;-0.974;2023-08-24T10:14:53;6.13;;;5.72;;
67378;SDS011;54262;44.642;-0.974;2023-08-24T10:17:31;6.03;;;5.57;;
67378;SDS011;54262;44.642;-0.974;2023-08-24T10:19:58;6.43;;;6.03;;
67378;SDS011;54262;44.642;-0.974;2023-08-24T10:22:28;5.90;;;5.18;;
67378;SDS011;54262;44.642;-0.974;2023-08-24T10:24:54;5.63;;;5.32;;
67378;SDS011;54262;44.642;-0.974;2023-08-24T10:27:22;6.75;;;6.18;;
67378;SDS011;54262;44.642;-0.974;2023-08-24T10:29:49;6.00;;;5.55;;
67378;SDS011;54262;44.642;-0.974;2023-08-24T10:32:15;8.82;;;7.80;;
67378;SDS011;54262;44.642;-0.974;2023-08-24T10:34:43;6.18;;;5.88;;
67378;SDS011;54262;44.642;-0.974;2023-08-24T10:37:12;6.93;;;6.55;;
67378;SDS011;54262;44.642;-0.974;2023-08-24T10:39:43;9.38;;;8.63;;
67378;SDS011;54262;44.642;-0.974;2023-08-24T10:42:10;8.88;;;8.10;;
67378;SDS011;54262;44.642;-0.974;2023-08-24T10:44:38;6.78;;;6.30;;
67378;SDS011;54262;44.642;-0.974;2023-08-24T10:47:08;9.05;;;8.40;;
67378;SDS011;54262;44.642;-0.974;2023-08-24T10:49:37;7.57;;;7.05;;
67378;SDS011;54262;44.642;-0.974;2023-08-24T10:54:54;7.03;;;6.38;;
67378;SDS011;54262;44.642;-0.974;2023-08-24T10:57:24;7.68;;;6.82;;
67378;SDS011;54262;44.642;-0.974;2023-08-24T11:02:41;6.78;;;5.78;;
67378;SDS011;54262;44.642;-0.974;2023-08-24T11:05:20;5.78;;;5.47;;
67378;SDS011;54262;44.642;-0.974;2023-08-24T11:07:50;9.35;;;6.75;;
67378;SDS011;54262;44.642;-0.974;2023-08-24T11:10:17;11.18;;;8.40;;
67378;SDS011;54262;44.642;-0.974;2023-08-24T11:15:38;10.80;;;7.25;;
67378;SDS011;54262;44.642;-0.974;2023-08-24T11:18:11;8.00;;;7.07;;
67378;SDS011;54262;44.642;-0.974;2023-08-24T11:20:56;10.60;;;6.90;;
67378;SDS011;54262;44.642;-0.974;2023-08-24T11:23:27;9.85;;;6.95;;
67378;SDS011;54262;44.642;-0.974;2023-08-24T11:25:53;8.00;;;7.15;;
67378;SDS011;54262;44.642;-0.974;2023-08-24T11:28:21;8.23;;;7.30;;
67378;SDS011;54262;44.642;-0.974;2023-08-24T11:30:56;9.20;;;6.80;;
67378;SDS011;54262;44.642;-0.974;2023-08-24T11:33:34;11.10;;;6.90;;
67378;SDS011;54262;44.642;-0.974;2023-08-24T11:36:03;6.82;;;6.32;;
67378;SDS011;54262;44.642;-0.974;2023-08-24T11:38:37;6.00;;;5.70;;
67378;SDS011;54262;44.642;-0.974;2023-08-24T11:41:10;7.13;;;6.53;;
67378;SDS011;54262;44.642;-0.974;2023-08-24T11:43:40;10.50;;;6.73;;
67378;SDS011;54262;44.642;-0.974;2023-08-24T11:46:07;7.00;;;5.45;;
67378;SDS011;54262;44.642;-0.974;2023-08-24T11:48:32;6.65;;;6.22;;
67378;SDS011;54262;44.642;-0.974;2023-08-24T11:50:58;5.63;;;5.22;;
67378;SDS011;54262;44.642;-0.974;2023-08-24T11:53:24;5.22;;;4.93;;
67378;SDS011;54262;44.642;-0.974;2023-08-24T11:55:54;5.35;;;5.05;;
67378;SDS011;54262;44.642;-0.974;2023-08-24T11:58:20;5.60;;;5.20;;
67378;SDS011;54262;44.642;-0.974;2023-08-24T12:00:46;5.57;;;5.18;;
67378;SDS011;54262;44.642;-0.974;2023-08-24T12:03:13;5.03;;;4.78;;
67378;SDS011;54262;44.642;-0.974;2023-08-24T12:05:39;5.43;;;5.13;;
67378;SDS011;54262;44.642;-0.974;2023-08-24T12:08:05;5.28;;;4.97;;
67378;SDS011;54262;44.642;-0.974;2023-08-24T12:10:31;5.43;;;4.93;;
67378;SDS011;54262;44.642;-0.974;2023-08-24T12:13:01;5.65;;;5.28;;
67378;SDS011;54262;44.642;-0.974;2023-08-24T12:15:29;4.63;;;4.32;;
67378;SDS011;54262;44.642;-0.974;2023-08-24T12:17:54;4.65;;;4.40;;
67378;SDS011;54262;44.642;-0.974;2023-08-24T12:20:20;5.63;;;5.15;;
67378;SDS011;54262;44.642;-0.974;2023-08-24T12:22:51;4.95;;;4.65;;
67378;SDS011;54262;44.642;-0.974;2023-08-24T12:25:17;8.23;;;4.40;;
67378;SDS011;54262;44.642;-0.974;2023-08-24T12:27:43;4.28;;;4.07;;
67378;SDS011;54262;44.642;-0.974;2023-08-24T12:30:10;4.60;;;4.38;;
67378;SDS011;54262;44.642;-0.974;2023-08-24T12:32:43;5.15;;;4.90;;
67378;SDS011;54262;44.642;-0.974;2023-08-24T12:37:38;4.50;;;4.30;;
67378;SDS011;54262;44.642;-0.974;2023-08-24T12:40:06;4.47;;;4.15;;
67378;SDS011;54262;44.642;-0.974;2023-08-24T12:42:32;4.93;;;4.03;;
67378;SDS011;54262;44.642;-0.974;2023-08-24T12:44:58;4.68;;;4.47;;
67378;SDS011;54262;44.642;-0.974;2023-08-24T12:47:24;4.63;;;4.43;;
67378;SDS011;54262;44.642;-0.974;2023-08-24T12:49:50;5.03;;;4.53;;
67378;SDS011;54262;44.642;-0.974;2023-08-24T12:52:17;11.18;;;4.55;;
67378;SDS011;54262;44.642;-0.974;2023-08-24T12:54:43;4.40;;;4.20;;
67378;SDS011;54262;44.642;-0.974;2023-08-24T12:57:09;7.82;;;3.78;;
67378;SDS011;54262;44.642;-0.974;2023-08-24T12:59:35;4.28;;;3.92;;
67378;SDS011;54262;44.642;-0.974;2023-08-24T13:02:00;4.18;;;3.80;;
67378;SDS011;54262;44.642;-0.974;2023-08-24T13:04:26;4.30;;;4.10;;
67378;SDS011;54262;44.642;-0.974;2023-08-24T13:06:54;4.20;;;3.90;;
67378;SDS011;54262;44.642;-0.974;2023-08-24T13:09:20;4.35;;;4.07;;
67378;SDS011;54262;44.642;-0.974;2023-08-24T13:11:46;4.32;;;4.03;;
67378;SDS011;54262;44.642;-0.974;2023-08-24T13:14:13;5.47;;;4.15;;
67378;SDS011;54262;44.642;-0.974;2023-08-24T13:16:39;4.25;;;4.00;;
67378;SDS011;54262;44.642;-0.974;2023-08-24T13:19:05;4.40;;;4.13;;
67378;SDS011;54262;44.642;-0.974;2023-08-24T13:21:30;4.28;;;4.07;;
67378;SDS011;54262;44.642;-0.974;2023-08-24T13:23:56;4.40;;;4.20;;
67378;SDS011;54262;44.642;-0.974;2023-08-24T13:26:22;7.32;;;3.90;;
67378;SDS011;54262;44.642;-0.974;2023-08-24T13:28:51;8.65;;;3.88;;
67378;SDS011;54262;44.642;-0.974;2023-08-24T13:31:17;4.25;;;3.80;;
67378;SDS011;54262;44.642;-0.974;2023-08-24T13:33:44;4.15;;;3.95;;
67378;SDS011;54262;44.642;-0.974;2023-08-24T13:36:10;4.00;;;3.80;;
67378;SDS011;54262;44.642;-0.974;2023-08-24T13:38:38;6.05;;;4.95;;
67378;SDS011;54262;44.642;-0.974;2023-08-24T13:41:06;4.63;;;4.32;;
67378;SDS011;54262;44.642;-0.974;2023-08-24T13:43:32;4.38;;;4.03;;
67378;SDS011;54262;44.642;-0.974;2023-08-24T13:45:57;4.30;;;4.10;;
67378;SDS011;54262;44.642;-0.974;2023-08-24T13:48:23;4.15;;;3.95;;
67378;SDS011;54262;44.642;-0.974;2023-08-24T13:50:52;4.80;;;4.32;;
67378;SDS011;54262;44.642;-0.974;2023-08-24T13:53:18;4.53;;;4.13;;
67378;SDS011;54262;44.642;-0.974;2023-08-24T13:55:44;4.22;;;3.92;;
67378;SDS011;54262;44.642;-0.974;2023-08-24T13:58:10;4.47;;;4.18;;
67378;SDS011;54262;44.642;-0.974;2023-08-24T14:00:36;4.43;;;4.22;;
67378;SDS011;54262;44.642;-0.974;2023-08-24T14:03:02;3.95;;;3.65;;
67378;SDS011;54262;44.642;-0.974;2023-08-24T14:05:29;3.95;;;3.75;;
67378;SDS011;54262;44.642;-0.974;2023-08-24T14:07:54;4.47;;;4.28;;
67378;SDS011;54262;44.642;-0.974;2023-08-24T14:10:20;3.60;;;3.40;;
67378;SDS011;54262;44.642;-0.974;2023-08-24T14:12:46;4.40;;;4.20;;
67378;SDS011;54262;44.642;-0.974;2023-08-24T14:15:11;4.32;;;4.13;;
67378;SDS011;54262;44.642;-0.974;2023-08-24T14:17:37;4.18;;;3.97;;
67378;SDS011;54262;44.642;-0.974;2023-08-24T14:20:03;4.05;;;3.83;;
67378;SDS011;54262;44.642;-0.974;2023-08-24T14:22:29;4.30;;;4.10;;
67378;SDS011;54262;44.642;-0.974;2023-08-24T14:24:55;4.63;;;4.22;;
67378;SDS011;54262;44.642;-0.974;2023-08-24T14:27:21;4.35;;;4.05;;
67378;SDS011;54262;44.642;-0.974;2023-08-24T14:29:47;5.40;;;3.88;;
67378;SDS011;54262;44.642;-0.974;2023-08-24T14:32:12;5.07;;;4.70;;
67378;SDS011;54262;44.642;-0.974;2023-08-24T14:34:38;4.72;;;4.53;;
67378;SDS011;54262;44.642;-0.974;2023-08-24T14:37:04;4.25;;;3.92;;
67378;SDS011;54262;44.642;-0.974;2023-08-24T14:39:32;4.60;;;4.20;;
67378;SDS011;54262;44.642;-0.974;2023-08-24T14:41:59;5.50;;;4.10;;
67378;SDS011;54262;44.642;-0.974;2023-08-24T14:44:27;4.22;;;4.03;;
67378;SDS011;54262;44.642;-0.974;2023-08-24T14:46:53;4.43;;;3.95;;
67378;SDS011;54262;44.642;-0.974;2023-08-24T14:49:19;4.18;;;3.88;;